Accueil
METAR-TAF:

METAR-TAF

Aéroports :

Aéroport international de Kuching

Kuching, Malaisie

latitude: 01-29N, longitude: 110-20E, altitude: 27 m

Observation

Le bulletin a été fait il y a 31 minutes, à 00:00 UTC
Vent calme
Température 26°C
Humidité 94%
Pression 1009 hPa
Visibilité 10 km ou plus
Quelques nuages à une hauteur de 2000 ft

METAR: WBGG 210000Z 00000KT 9999 FEW020 26/25 Q1009 NOSIG

Heure: 08:31 (00:31 UTC)

Prévision

Le bulletin a été fait il y a 1 heure et 31 minutes, à 23:00 UTC
Prévision valable du 21 à 00 UTC au 22 à 00 UTC
Vent 3 kt de direction variable
Visibilité 10 km ou plus
Quelques nuages à une hauteur de 2000 ft
Temporairement
du 21 à 06 UTC au 21 à 10 UTC
Vent 10 kt de sud-ouest
Visibilité: 5000 m
Quelques nuages à une hauteur de 1500 ft, Cumulonimbus.
Nuages épars à une hauteur de 1800 ft
orage, pluie faible,

TAF: WBGG 202300Z 2100/2200 VRB03KT 9999 FEW020 TEMPO 2106/2110 22010KT 5000 -TSRA FEW015CB SCT018

Observations et prévisions météorologiques de plus de 4000 aéroports (messages METAR et TAF).

Les stations disponibles sont représentées par des disques jaunes et rouges sur la carte.

Passer la souris dessus pour voir le nom de la station.

Cliquer dessus pour voir les observations et prévisions météorologiques.

Pour changer de carte: cliquez sur les boutons verts avec une croix noire pour zoomer, sur le bouton vert avec un tiret pour effectuer un zoom arrière, ou sur les flèches vertes pour les cartes adjacentes.


METAR-TAF: